createdAt,value
2022-12-04T00:02:15.948Z,12.30
2022-12-04T00:04:45.409Z,11.32
2022-12-04T00:07:16.032Z,9.75
2022-12-04T00:09:46.650Z,10.50
2022-12-04T00:12:44.791Z,9.30
2022-12-04T00:17:53.154Z,12.60
2022-12-04T00:20:23.099Z,11.50
2022-12-04T00:22:53.510Z,11.52
2022-12-04T00:25:21.166Z,10.40
2022-12-04T00:27:56.958Z,11.70
2022-12-04T00:30:27.350Z,10.05
2022-12-04T00:32:56.825Z,9.02
2022-12-04T00:35:26.037Z,10.93
2022-12-04T00:37:55.033Z,11.15
2022-12-04T00:40:26.819Z,9.88
2022-12-04T00:42:55.558Z,10.20
2022-12-04T00:45:26.671Z,9.60
2022-12-04T00:47:56.557Z,11.05
2022-12-04T00:50:33.017Z,10.30
2022-12-04T00:53:02.468Z,10.90
2022-12-04T00:55:33.274Z,11.98
2022-12-04T00:58:14.066Z,10.88
2022-12-04T01:00:43.390Z,10.68
2022-12-04T01:03:12.866Z,9.45
2022-12-04T01:05:41.746Z,9.65
2022-12-04T01:08:10.072Z,9.48
2022-12-04T01:10:40.867Z,9.77
2022-12-04T01:13:08.735Z,10.60
2022-12-04T01:15:39.921Z,10.63
2022-12-04T01:18:07.997Z,10.13
2022-12-04T01:20:37.247Z,10.85
2022-12-04T01:23:05.072Z,11.15
2022-12-04T01:25:33.042Z,11.70
2022-12-04T01:28:00.578Z,9.90
2022-12-04T01:30:28.372Z,10.00
2022-12-04T01:32:55.910Z,11.10
2022-12-04T01:35:23.450Z,11.70
2022-12-04T01:37:52.264Z,9.40
2022-12-04T01:40:19.825Z,10.02
2022-12-04T01:42:47.348Z,9.65
2022-12-04T01:45:39.863Z,9.98
2022-12-04T01:48:17.209Z,10.10
2022-12-04T01:50:45.427Z,10.43
2022-12-04T01:53:14.889Z,10.85
2022-12-04T01:55:42.630Z,10.70
2022-12-04T01:58:10.667Z,10.35
2022-12-04T02:00:38.237Z,9.55
2022-12-04T02:03:05.854Z,10.50
2022-12-04T02:05:33.415Z,9.15
2022-12-04T02:08:02.500Z,10.20
2022-12-04T02:10:38.395Z,9.27
2022-12-04T02:13:11.103Z,9.85
2022-12-04T02:15:43.179Z,10.45
2022-12-04T02:18:14.218Z,9.43
2022-12-04T02:20:48.106Z,9.55
2022-12-04T02:23:33.822Z,11.65
2022-12-04T02:26:08.044Z,8.90
2022-12-04T02:28:40.904Z,9.95
2022-12-04T02:31:13.445Z,11.98
2022-12-04T02:33:46.280Z,11.27
2022-12-04T02:36:17.929Z,9.90
2022-12-04T02:38:48.591Z,9.60
2022-12-04T02:41:19.576Z,9.93
2022-12-04T02:43:50.197Z,11.07
2022-12-04T02:46:20.855Z,10.90
2022-12-04T02:48:50.949Z,10.00
2022-12-04T02:51:20.723Z,9.38
2022-12-04T02:53:51.673Z,10.43
2022-12-04T02:56:22.272Z,9.77
2022-12-04T02:58:53.576Z,9.88
2022-12-04T03:01:26.060Z,10.63
2022-12-04T03:03:57.215Z,9.65
2022-12-04T03:06:26.766Z,11.45
2022-12-04T03:08:58.030Z,9.45
2022-12-04T03:11:26.713Z,9.55
2022-12-04T03:13:59.931Z,10.57
2022-12-04T03:16:30.290Z,9.32
2022-12-04T03:19:00.527Z,9.38
2022-12-04T03:21:31.265Z,11.20
2022-12-04T03:24:04.378Z,10.13
2022-12-04T03:26:35.719Z,9.52
2022-12-04T03:29:10.163Z,9.43
2022-12-04T03:31:42.885Z,10.00
2022-12-04T03:34:11.840Z,10.75
2022-12-04T03:36:43.925Z,12.38
2022-12-04T03:39:18.680Z,9.50
2022-12-04T03:41:54.045Z,10.25
2022-12-04T03:44:24.478Z,8.57
2022-12-04T03:46:56.094Z,11.48
2022-12-04T03:49:26.345Z,9.93
2022-12-04T03:51:58.804Z,9.07
2022-12-04T03:54:29.748Z,10.88
2022-12-04T03:57:00.730Z,8.10
2022-12-04T03:59:31.490Z,10.75
2022-12-04T04:02:01.328Z,10.85
2022-12-04T04:04:32.880Z,9.40
2022-12-04T04:07:04.463Z,9.27
2022-12-04T04:09:35.961Z,9.07
2022-12-04T04:12:06.748Z,10.57
2022-12-04T04:14:55.613Z,10.10
2022-12-04T04:17:46.352Z,10.68
2022-12-04T04:20:34.716Z,10.57
2022-12-04T04:23:22.131Z,10.25
2022-12-04T04:25:50.000Z,10.45
2022-12-04T04:28:29.314Z,9.30
2022-12-04T04:31:06.009Z,9.45
2022-12-04T04:33:35.589Z,9.20
2022-12-04T04:36:08.792Z,9.83
2022-12-04T04:38:40.636Z,9.98
2022-12-04T04:41:11.315Z,11.15
2022-12-04T04:43:43.894Z,9.40
2022-12-04T04:46:15.600Z,9.48
2022-12-04T04:48:45.360Z,9.38
2022-12-04T04:51:13.210Z,10.00
2022-12-04T04:53:43.724Z,9.40
2022-12-04T04:56:11.404Z,9.85
2022-12-04T04:58:38.934Z,9.32
2022-12-04T05:01:09.763Z,9.57
2022-12-04T05:03:38.840Z,9.90
2022-12-04T05:06:06.973Z,9.80
2022-12-04T05:08:34.556Z,9.75
2022-12-04T05:11:02.264Z,9.65
2022-12-04T05:13:30.651Z,10.15
2022-12-04T05:15:59.015Z,9.35
2022-12-04T05:18:26.741Z,10.30
2022-12-04T05:20:54.862Z,8.60
2022-12-04T05:23:22.567Z,10.03
2022-12-04T05:25:50.081Z,10.02
2022-12-04T05:28:17.903Z,10.40
2022-12-04T05:30:45.970Z,9.85
2022-12-04T05:33:13.492Z,10.70
2022-12-04T05:35:41.018Z,9.40
2022-12-04T05:38:09.882Z,9.35
2022-12-04T05:40:37.404Z,9.77
2022-12-04T05:43:05.006Z,9.90
2022-12-04T05:45:32.501Z,9.13
2022-12-04T05:47:59.996Z,8.82
2022-12-04T05:50:27.477Z,11.20
2022-12-04T05:52:55.065Z,8.33
2022-12-04T05:55:23.933Z,10.98
2022-12-04T05:57:51.440Z,9.75
2022-12-04T06:00:19.476Z,9.18
2022-12-04T06:02:47.123Z,9.20
2022-12-04T06:05:14.808Z,9.73
2022-12-04T06:07:42.385Z,8.93
2022-12-04T06:10:10.111Z,9.50
2022-12-04T06:12:39.003Z,9.95
2022-12-04T06:15:07.297Z,9.48
2022-12-04T06:17:34.829Z,9.02
2022-12-04T06:20:06.528Z,10.10
2022-12-04T06:22:37.225Z,10.20
2022-12-04T06:25:05.059Z,9.80
2022-12-04T06:27:32.526Z,10.15
2022-12-04T06:30:01.481Z,8.80
2022-12-04T06:32:29.287Z,9.70
2022-12-04T06:34:56.841Z,11.40
2022-12-04T06:37:25.935Z,9.45
2022-12-04T06:39:53.784Z,9.25
2022-12-04T06:42:21.422Z,9.47
2022-12-04T06:44:50.023Z,9.25
2022-12-04T06:47:18.874Z,9.07
2022-12-04T06:49:50.358Z,8.65
2022-12-04T06:52:18.191Z,8.73
2022-12-04T06:54:45.679Z,8.73
2022-12-04T06:57:13.222Z,8.57
2022-12-04T06:59:40.993Z,8.77
2022-12-04T07:02:10.370Z,9.13
2022-12-04T07:04:39.324Z,11.07
2022-12-04T07:07:09.211Z,10.45
2022-12-04T07:09:36.928Z,10.87
2022-12-04T07:12:04.732Z,8.75
2022-12-04T07:14:32.296Z,8.27
2022-12-04T07:17:07.512Z,8.85
2022-12-04T07:19:35.100Z,7.82
2022-12-04T07:22:04.020Z,9.48
2022-12-04T07:24:31.529Z,9.55
2022-12-04T07:26:59.008Z,9.65
2022-12-04T07:29:26.642Z,9.32
2022-12-04T07:31:54.409Z,7.82
2022-12-04T07:34:23.590Z,8.55
2022-12-04T07:36:51.505Z,10.18
2022-12-04T07:39:20.731Z,7.60
2022-12-04T07:41:48.630Z,9.32
2022-12-04T07:44:19.110Z,8.88
2022-12-04T07:46:47.298Z,9.07
2022-12-04T07:49:17.650Z,8.70
2022-12-04T07:51:56.683Z,8.63
2022-12-04T07:54:26.029Z,9.70
2022-12-04T07:56:53.807Z,8.88
2022-12-04T07:59:21.623Z,9.00
2022-12-04T08:01:52.330Z,9.75
2022-12-04T08:04:20.331Z,8.73
2022-12-04T08:06:49.307Z,9.40
2022-12-04T08:09:21.578Z,8.83
2022-12-04T08:11:55.137Z,9.52
2022-12-04T08:14:26.129Z,8.02
2022-12-04T08:17:09.145Z,9.50
2022-12-04T08:19:49.769Z,8.93
2022-12-04T08:22:25.295Z,9.20
2022-12-04T08:24:56.058Z,10.32
2022-12-04T08:27:29.793Z,10.27
2022-12-04T08:29:57.986Z,7.82
2022-12-04T08:32:28.853Z,9.52
2022-12-04T08:35:01.042Z,8.40
2022-12-04T08:37:40.172Z,10.02
2022-12-04T08:40:11.858Z,10.85
2022-12-04T08:42:40.971Z,8.93
2022-12-04T08:45:14.555Z,8.45
2022-12-04T08:47:42.485Z,10.02
2022-12-04T08:50:10.920Z,9.70
2022-12-04T08:52:38.933Z,11.02
2022-12-04T08:55:11.740Z,9.87
2022-12-04T08:57:43.521Z,9.07
2022-12-04T09:00:14.856Z,9.48
2022-12-04T09:02:42.809Z,10.70
2022-12-04T09:05:15.502Z,10.90
2022-12-04T09:07:43.322Z,9.07
2022-12-04T09:10:18.273Z,10.10
2022-12-04T09:12:47.385Z,10.48
2022-12-04T09:15:16.848Z,10.23
2022-12-04T09:17:44.381Z,10.63
2022-12-04T09:20:12.403Z,11.25
2022-12-04T09:23:02.119Z,11.45
2022-12-04T09:25:27.400Z,13.10
2022-12-04T09:27:56.528Z,10.55
2022-12-04T09:30:24.046Z,12.00
2022-12-04T09:32:51.558Z,10.30
2022-12-04T09:35:19.299Z,11.48
2022-12-04T09:37:46.798Z,12.43
2022-12-04T09:40:23.891Z,11.65
2022-12-04T09:42:58.748Z,10.55
2022-12-04T09:45:27.317Z,12.80
2022-12-04T09:47:57.868Z,11.73
2022-12-04T09:50:27.858Z,11.57
2022-12-04T09:52:57.953Z,12.18
2022-12-04T09:55:27.896Z,11.50
2022-12-04T09:58:02.004Z,12.68
2022-12-04T10:00:30.899Z,12.52
2022-12-04T10:03:01.848Z,11.45
2022-12-04T10:05:39.504Z,11.33
2022-12-04T10:08:10.947Z,11.27
2022-12-04T10:10:40.929Z,11.43
2022-12-04T10:13:25.545Z,11.03
2022-12-04T10:15:56.894Z,11.95
2022-12-04T10:18:33.346Z,12.98
2022-12-04T10:21:22.110Z,12.00
2022-12-04T10:24:02.988Z,11.95
2022-12-04T10:26:34.502Z,10.45
2022-12-04T10:29:05.235Z,10.90
2022-12-04T10:31:33.930Z,11.10
2022-12-04T10:34:04.814Z,10.73
2022-12-04T10:36:34.608Z,10.77
2022-12-04T10:39:04.739Z,11.43
2022-12-04T10:41:36.523Z,11.53
2022-12-04T10:44:05.718Z,12.13
2022-12-04T10:46:35.495Z,11.27
2022-12-04T10:49:06.638Z,11.13
2022-12-04T10:51:39.869Z,10.80
2022-12-04T10:54:16.450Z,12.55
2022-12-04T10:56:51.821Z,10.73
2022-12-04T10:59:21.057Z,10.67
2022-12-04T11:01:48.850Z,11.57
2022-12-04T11:04:22.321Z,11.90
2022-12-04T11:06:50.888Z,12.10
2022-12-04T11:09:24.880Z,10.85
2022-12-04T11:11:53.617Z,10.70
2022-12-04T11:14:23.968Z,10.87
2022-12-04T11:17:02.004Z,10.48
2022-12-04T11:19:31.448Z,10.20
2022-12-04T11:22:01.641Z,11.88
2022-12-04T11:24:31.836Z,10.13
2022-12-04T11:26:59.529Z,10.05
2022-12-04T11:29:33.158Z,10.27
2022-12-04T11:32:07.195Z,11.75
2022-12-04T11:34:37.611Z,11.55
2022-12-04T11:37:05.766Z,9.73
2022-12-04T11:39:36.515Z,10.30
2022-12-04T11:42:06.750Z,10.13
2022-12-04T11:44:37.471Z,11.70
2022-12-04T11:47:06.419Z,11.30
2022-12-04T11:49:34.203Z,9.20
2022-12-04T11:52:11.245Z,9.75
2022-12-04T11:54:47.134Z,10.40
2022-12-04T11:57:24.777Z,10.43
2022-12-04T12:00:05.958Z,11.00
2022-12-04T12:02:51.343Z,10.88
2022-12-04T12:05:42.665Z,10.02
2022-12-04T12:08:15.221Z,8.97
2022-12-04T12:10:49.173Z,10.10
2022-12-04T12:13:23.215Z,9.60
2022-12-04T12:15:59.796Z,12.03
2022-12-04T12:18:47.794Z,11.90
2022-12-04T12:21:19.062Z,9.20
2022-12-04T12:24:14.373Z,10.80
2022-12-04T12:26:46.905Z,9.60
2022-12-04T12:29:27.364Z,9.75
2022-12-04T12:32:09.044Z,11.40
2022-12-04T12:34:38.750Z,11.80
2022-12-04T12:37:12.633Z,9.25
2022-12-04T12:39:41.448Z,10.20
2022-12-04T12:42:15.963Z,9.57
2022-12-04T12:44:50.031Z,11.00
2022-12-04T12:47:20.674Z,10.13
2022-12-04T12:49:53.817Z,10.53
2022-12-04T12:52:32.227Z,9.33
2022-12-04T12:55:04.180Z,10.20
2022-12-04T12:57:34.854Z,7.70
2022-12-04T13:00:07.712Z,10.00
2022-12-04T13:02:39.502Z,10.80
2022-12-04T13:05:10.690Z,10.90
2022-12-04T13:07:44.152Z,10.50
2022-12-04T13:10:18.028Z,9.20
2022-12-04T13:12:49.145Z,10.53
2022-12-04T13:15:18.561Z,9.60
2022-12-04T13:17:49.625Z,11.90
2022-12-04T13:20:20.137Z,8.90
2022-12-04T13:22:58.514Z,9.90
2022-12-04T13:25:35.490Z,9.17
2022-12-04T13:28:11.917Z,10.37
2022-12-04T13:30:44.061Z,9.70
2022-12-04T13:33:29.067Z,10.90
2022-12-04T13:36:16.383Z,10.83
2022-12-04T13:38:58.042Z,11.40
2022-12-04T13:41:27.487Z,10.47
2022-12-04T13:43:58.975Z,10.60
2022-12-04T13:46:37.860Z,10.37
2022-12-04T13:49:26.111Z,11.80
2022-12-04T13:51:54.962Z,9.67
2022-12-04T13:54:32.106Z,9.97
2022-12-04T14:01:02.173Z,10.60
2022-12-04T14:03:35.581Z,9.43
2022-12-04T14:06:08.428Z,11.80
2022-12-04T14:08:42.128Z,9.87
2022-12-04T14:11:15.067Z,10.50
2022-12-04T14:13:45.169Z,11.30
2022-12-04T14:16:23.122Z,10.93
2022-12-04T14:18:59.871Z,10.80
2022-12-04T14:21:50.183Z,9.90
2022-12-04T14:24:19.348Z,11.48
2022-12-04T14:29:46.962Z,10.63
2022-12-04T14:32:21.584Z,10.57
2022-12-04T14:34:50.396Z,9.83
2022-12-04T14:37:24.106Z,9.93
2022-12-04T14:39:52.375Z,10.85
2022-12-04T14:42:25.239Z,10.32
2022-12-04T14:44:55.071Z,10.50
2022-12-04T14:47:34.595Z,10.67
2022-12-04T14:50:13.349Z,10.30
2022-12-04T14:52:46.718Z,10.60
2022-12-04T14:55:21.393Z,10.90
2022-12-04T14:57:54.592Z,12.10
2022-12-04T15:00:24.098Z,10.73
2022-12-04T15:02:54.303Z,12.23
2022-12-04T15:05:25.706Z,11.10
2022-12-04T15:07:57.933Z,10.50
2022-12-04T15:10:44.472Z,10.53
2022-12-04T15:13:14.925Z,11.67
2022-12-04T15:15:47.024Z,10.33
2022-12-04T15:18:18.265Z,10.30
2022-12-04T15:20:55.945Z,12.60
2022-12-04T15:23:27.958Z,11.53
2022-12-04T15:26:17.319Z,11.50
2022-12-04T15:28:46.672Z,11.17
2022-12-04T15:31:17.190Z,10.63
2022-12-04T15:33:48.665Z,10.83
2022-12-04T15:36:20.653Z,12.83
2022-12-04T15:38:51.079Z,12.60
2022-12-04T15:41:31.123Z,10.83
2022-12-04T15:43:59.274Z,13.17
2022-12-04T15:46:34.740Z,12.00
2022-12-04T15:49:08.381Z,12.33
2022-12-04T15:51:36.492Z,12.50
2022-12-04T15:54:05.771Z,13.17
2022-12-04T15:56:33.576Z,13.33
2022-12-04T15:59:03.630Z,11.90
2022-12-04T16:01:39.359Z,13.33
2022-12-04T16:04:07.212Z,10.97
2022-12-04T16:06:36.783Z,14.97
2022-12-04T16:09:22.851Z,13.43
2022-12-04T16:11:59.147Z,13.30
2022-12-04T16:14:27.126Z,12.87
2022-12-04T16:16:58.073Z,12.07
2022-12-04T16:19:35.664Z,12.13
2022-12-04T16:22:10.285Z,31.93
2022-12-04T16:24:39.891Z,22.97
2022-12-04T16:27:11.498Z,14.50
2022-12-04T16:29:42.145Z,12.23
2022-12-04T16:32:11.837Z,14.85
2022-12-04T16:34:42.608Z,11.60
2022-12-04T16:37:16.573Z,13.50
2022-12-04T16:39:47.145Z,12.13
2022-12-04T16:42:18.419Z,12.50
2022-12-04T16:44:46.513Z,12.60
2022-12-04T16:47:19.520Z,15.00
2022-12-04T16:49:49.763Z,14.97
2022-12-04T16:52:18.934Z,12.57
2022-12-04T16:54:48.315Z,12.57
2022-12-04T16:57:16.099Z,11.43
2022-12-04T16:59:44.009Z,12.53
2022-12-04T17:02:16.736Z,12.67
2022-12-04T17:04:44.581Z,11.90
2022-12-04T17:07:12.350Z,13.07
2022-12-04T17:09:39.924Z,12.10
2022-12-04T17:12:31.360Z,19.13
2022-12-04T17:15:03.186Z,14.20
2022-12-04T17:17:32.332Z,16.13
2022-12-04T17:20:00.211Z,15.03
2022-12-04T17:22:27.932Z,13.87
2022-12-04T17:24:56.455Z,14.47
2022-12-04T17:27:25.773Z,12.87
2022-12-04T17:29:53.680Z,17.07
2022-12-04T17:32:22.482Z,15.40
2022-12-04T17:34:50.391Z,11.98
2022-12-04T17:37:20.953Z,13.57
2022-12-04T17:39:48.938Z,11.60
2022-12-04T17:42:19.412Z,13.67
2022-12-04T17:44:48.810Z,12.07
2022-12-04T17:47:16.795Z,15.03
2022-12-04T17:49:46.782Z,12.63
2022-12-04T17:52:17.070Z,15.50
2022-12-04T17:54:49.229Z,12.93
2022-12-04T17:57:18.542Z,15.83
2022-12-04T18:00:06.636Z,16.13
2022-12-04T18:02:34.400Z,12.85
2022-12-04T18:05:02.168Z,14.40
2022-12-04T18:07:29.870Z,10.90
2022-12-04T18:09:57.993Z,13.93
2022-12-04T18:12:36.529Z,12.97
2022-12-04T18:15:11.335Z,13.70
2022-12-04T18:17:39.722Z,14.60
2022-12-04T18:20:09.318Z,14.38
2022-12-04T18:22:41.549Z,15.25
2022-12-04T18:25:17.697Z,15.60
2022-12-04T18:27:45.439Z,15.40
2022-12-04T18:30:15.555Z,15.90
2022-12-04T18:32:44.081Z,16.47
2022-12-04T18:35:11.635Z,15.90
2022-12-04T18:37:39.264Z,12.20
2022-12-04T18:40:08.460Z,12.53
2022-12-04T18:42:36.286Z,13.50
2022-12-04T18:45:03.943Z,14.03
2022-12-04T18:47:36.660Z,15.93
2022-12-04T18:50:04.579Z,13.63
2022-12-04T18:52:38.371Z,13.97
2022-12-04T18:55:06.422Z,12.40
2022-12-04T18:57:36.652Z,11.77
2022-12-04T19:00:04.920Z,14.57
2022-12-04T19:02:34.164Z,12.43
2022-12-04T19:05:01.830Z,11.93
2022-12-04T19:07:29.550Z,14.90
2022-12-04T19:10:12.499Z,13.70
2022-12-04T19:12:40.379Z,12.80
2022-12-04T19:15:08.655Z,15.50
2022-12-04T19:17:37.832Z,15.40
2022-12-04T19:20:06.388Z,16.20
2022-12-04T19:22:34.184Z,18.20
2022-12-04T19:25:02.023Z,14.60
2022-12-04T19:27:29.718Z,11.77
2022-12-04T19:29:57.536Z,14.67
2022-12-04T19:32:25.649Z,11.65
2022-12-04T19:34:54.707Z,12.87
2022-12-04T19:37:22.338Z,12.20
2022-12-04T19:39:49.962Z,13.27
2022-12-04T19:42:17.565Z,13.00
2022-12-04T19:44:49.434Z,14.73
2022-12-04T19:47:17.785Z,12.75
2022-12-04T19:49:46.420Z,13.80
2022-12-04T19:52:15.711Z,13.37
2022-12-04T19:54:47.877Z,13.97
2022-12-04T19:57:15.795Z,12.67
2022-12-04T19:59:46.566Z,13.57
2022-12-04T20:02:15.164Z,16.13
2022-12-04T20:04:43.231Z,14.47
2022-12-04T20:07:11.033Z,12.20
2022-12-04T20:09:40.148Z,12.60
2022-12-04T20:12:08.281Z,12.15
2022-12-04T20:14:35.944Z,10.57
2022-12-04T20:17:03.917Z,11.77
2022-12-04T20:19:31.884Z,11.40
2022-12-04T20:21:59.746Z,13.93
2022-12-04T20:24:27.444Z,11.60
2022-12-04T20:26:56.479Z,11.83
2022-12-04T20:29:24.086Z,12.43
2022-12-04T20:31:51.830Z,13.00
2022-12-04T20:34:20.331Z,13.10
2022-12-04T20:36:51.115Z,11.60
2022-12-04T20:39:20.271Z,11.50
2022-12-04T20:41:48.257Z,13.10
2022-12-04T20:44:18.926Z,13.63
2022-12-04T20:46:47.174Z,12.55
2022-12-04T20:49:21.201Z,13.93
2022-12-04T20:51:50.457Z,11.32
2022-12-04T20:54:20.069Z,13.60
2022-12-04T20:56:49.177Z,11.63
2022-12-04T20:59:19.344Z,11.77
2022-12-04T21:01:48.855Z,12.02
2022-12-04T21:04:17.794Z,12.18
2022-12-04T21:06:48.960Z,12.70
2022-12-04T21:09:18.222Z,12.27
2022-12-04T21:11:50.626Z,14.23
2022-12-04T21:14:38.484Z,13.47
2022-12-04T21:17:09.218Z,12.30
2022-12-04T21:19:39.223Z,13.77
2022-12-04T21:22:07.249Z,12.53
2022-12-04T21:24:38.494Z,14.23
2022-12-04T21:27:10.009Z,13.47
2022-12-04T21:29:52.527Z,13.60
2022-12-04T21:32:22.736Z,12.53
2022-12-04T21:34:51.927Z,13.10
2022-12-04T21:37:19.665Z,12.50
2022-12-04T21:39:51.645Z,12.20
2022-12-04T21:42:31.573Z,12.10
2022-12-04T21:45:01.880Z,11.33
2022-12-04T21:47:30.378Z,10.03
2022-12-04T21:49:58.521Z,12.13
2022-12-04T21:52:26.653Z,11.33
2022-12-04T21:54:55.701Z,12.97
2022-12-04T21:57:28.398Z,13.93
2022-12-04T21:59:56.535Z,12.87
2022-12-04T22:02:27.421Z,12.40
2022-12-04T22:04:55.292Z,12.07
2022-12-04T22:07:23.400Z,13.83
2022-12-04T22:09:51.133Z,11.27
2022-12-04T22:15:18.013Z,11.50
2022-12-04T22:17:52.854Z,12.90
2022-12-04T22:20:20.910Z,12.50
2022-12-04T22:22:51.062Z,11.80
2022-12-04T22:25:19.219Z,11.70
2022-12-04T22:27:50.371Z,12.63
2022-12-04T22:30:18.392Z,12.27
2022-12-04T22:32:47.622Z,12.53
2022-12-04T22:35:15.472Z,12.60
2022-12-04T22:37:53.157Z,12.87
2022-12-04T22:40:21.195Z,11.77
2022-12-04T22:42:49.137Z,13.57
2022-12-04T22:45:17.883Z,14.00
2022-12-04T22:47:46.971Z,11.17
2022-12-04T22:50:14.941Z,11.20
2022-12-04T22:52:43.247Z,9.63
2022-12-04T22:55:11.031Z,11.55
2022-12-04T22:57:38.754Z,11.03
2022-12-04T23:00:09.258Z,12.80
2022-12-04T23:02:36.822Z,10.93
2022-12-04T23:05:06.050Z,11.63
2022-12-04T23:07:37.272Z,11.57
2022-12-04T23:10:05.837Z,11.43
2022-12-04T23:12:33.355Z,11.65
2022-12-04T23:15:00.879Z,12.07
2022-12-04T23:17:28.521Z,12.23
2022-12-04T23:19:56.370Z,12.50
2022-12-04T23:22:25.461Z,12.50
2022-12-04T23:24:58.068Z,13.07
2022-12-04T23:27:25.580Z,10.47
2022-12-04T23:29:53.912Z,12.23
2022-12-04T23:32:21.638Z,12.90
2022-12-04T23:34:49.182Z,11.73
2022-12-04T23:37:16.722Z,11.20
2022-12-04T23:39:45.587Z,12.70
2022-12-04T23:42:13.335Z,10.83
2022-12-04T23:44:40.848Z,13.00
2022-12-04T23:47:08.396Z,10.90
2022-12-04T23:49:35.966Z,10.97
2022-12-04T23:52:03.476Z,14.33
2022-12-04T23:54:34.820Z,12.10
2022-12-04T23:57:03.918Z,11.48
2022-12-04T23:59:31.541Z,11.47
